Decoded Metar for LFPG (PARIS CHARLES DE GAULLE in FRANCE) (IATA:CDG) | Meteo·Mobile Aviation Weather
aviador You're here:

LFPG Decoded Metar

PARIS CHARLES DE GAULLE in FRANCE
Report Time2019-06-17 04:30:00
UTC Time2019-06-17 04:40:24
Flight Rules vfr VFR
Wind120° at 04 kt
W.Decomp.*RWY 09: 3.4 kt HW 2.1 kt RCW
RWY 08: 3.0 kt HW 2.6 kt RCW
Visibility9999 m
Phenomena:N/A
Clouds:N/A
Expected CloudBase > 1,600 ft AGL from Temp-Dew spread
CeilingNone
Temp15°C (ISA +1)
Dew Point11°C (77% RH)
AAT13.9°C
QNH1020 hPa
Density Alt384 ft
Elevation358 ft
Report Wrong Elevation
Raw Report
METAR LFPG 170430Z 12004KT CAVOK 15/11 Q1020 NOSIG=

Extra information for LFPG:More info

Metar Taf Metar & Taf Last 4 Metars F.Rules Stats Wind Profile Meteogram Temp Stats Airport Information Weather charts Add Link Nearby VenuesMetar ALERT Operation Metar Decoded Social comments